Terminal Aerodrome Forecast
Issued by NWS

Home | Current Version | Previous Version | Text Only | Print | Product List | Glossary On
Versions: 1 2 3 4 5 6 7 8 9 10 11 12 13 14 15 16 17 18 19 20 21
000
FTUS45 KCYS 170520
TAFAIA
TAF
KAIA 170520Z 1706/1806 23004KT P6SM SKC
     FM171600 20010G20KT P6SM SCT100
     FM172000 23010G20KT P6SM SCT100
     FM180100 20008KT P6SM SCT100=

USA.gov is the U.S. government's official web portal to all federal, state and local government web resources and services.